Terminal Aerodrome Forecast
Issued by NWS Grand Junction, CO

Home | Current Version | Previous Version | Text Only | Print | Product List | Glossary On
Versions: 1 2 3 4 5 6 7 8 9 10 11 12 13 14 15 16 17 18 19 20 21 22 23 24 25 26 27 28 29 30 31 32 33 34 35 36 37 38 39 40 41 42
000
FTUS45 KGJT 280520
TAFGJT
TAF
KGJT 280520Z 2806/2906 09006KT P6SM VCSH SCT080 OVC100
      TEMPO 2806/2808 -SHRA BKN080
     FM281300 14005KT P6SM FEW010 SCT100
     FM281900 26007KT P6SM SCT090
     FM290200 05004KT P6SM FEW100=

USA.gov is the U.S. government's official web portal to all federal, state and local government web resources and services.